sensor_id;sensor_type;location;lat;lon;timestamp;P1;durP1;ratioP1;P2;durP2;ratioP2
80381;SDS011;69692;55.820;37.490;2024-03-22T00:00:16;14.98;;;6.88;;
80381;SDS011;69692;55.820;37.490;2024-03-22T00:02:42;13.02;;;6.40;;
80381;SDS011;69692;55.820;37.490;2024-03-22T00:05:08;10.73;;;6.13;;
80381;SDS011;69692;55.820;37.490;2024-03-22T00:07:34;10.20;;;6.70;;
80381;SDS011;69692;55.820;37.490;2024-03-22T00:10:00;13.60;;;6.65;;
80381;SDS011;69692;55.820;37.490;2024-03-22T00:12:25;10.95;;;6.13;;
80381;SDS011;69692;55.820;37.490;2024-03-22T00:14:51;17.50;;;6.47;;
80381;SDS011;69692;55.820;37.490;2024-03-22T00:17:20;12.68;;;5.60;;
80381;SDS011;69692;55.820;37.490;2024-03-22T00:19:46;13.73;;;6.97;;
80381;SDS011;69692;55.820;37.490;2024-03-22T00:22:12;8.32;;;5.70;;
80381;SDS011;69692;55.820;37.490;2024-03-22T00:24:38;10.63;;;6.22;;
80381;SDS011;69692;55.820;37.490;2024-03-22T00:27:04;12.43;;;5.97;;
80381;SDS011;69692;55.820;37.490;2024-03-22T00:29:30;13.57;;;6.10;;
80381;SDS011;69692;55.820;37.490;2024-03-22T00:31:56;11.93;;;6.18;;
80381;SDS011;69692;55.820;37.490;2024-03-22T00:34:22;13.32;;;7.15;;
80381;SDS011;69692;55.820;37.490;2024-03-22T00:36:48;11.18;;;5.80;;
80381;SDS011;69692;55.820;37.490;2024-03-22T00:39:16;13.45;;;7.07;;
80381;SDS011;69692;55.820;37.490;2024-03-22T00:41:42;18.52;;;6.68;;
80381;SDS011;69692;55.820;37.490;2024-03-22T00:44:08;13.73;;;7.82;;
80381;SDS011;69692;55.820;37.490;2024-03-22T00:46:33;11.30;;;6.95;;
80381;SDS011;69692;55.820;37.490;2024-03-22T00:49:01;14.13;;;7.10;;
80381;SDS011;69692;55.820;37.490;2024-03-22T00:51:27;12.43;;;6.85;;
80381;SDS011;69692;55.820;37.490;2024-03-22T00:53:53;12.48;;;6.80;;
80381;SDS011;69692;55.820;37.490;2024-03-22T00:56:19;12.27;;;7.32;;
80381;SDS011;69692;55.820;37.490;2024-03-22T00:58:45;11.05;;;6.30;;
80381;SDS011;69692;55.820;37.490;2024-03-22T01:01:11;9.38;;;6.50;;
80381;SDS011;69692;55.820;37.490;2024-03-22T01:03:37;11.57;;;5.72;;
80381;SDS011;69692;55.820;37.490;2024-03-22T01:06:04;21.58;;;7.18;;
80381;SDS011;69692;55.820;37.490;2024-03-22T01:08:30;11.15;;;5.55;;
80381;SDS011;69692;55.820;37.490;2024-03-22T01:10:56;10.00;;;5.70;;
80381;SDS011;69692;55.820;37.490;2024-03-22T01:13:22;10.00;;;6.03;;
80381;SDS011;69692;55.820;37.490;2024-03-22T01:15:48;12.32;;;6.45;;
80381;SDS011;69692;55.820;37.490;2024-03-22T01:18:14;12.73;;;6.85;;
80381;SDS011;69692;55.820;37.490;2024-03-22T01:20:40;11.27;;;6.15;;
80381;SDS011;69692;55.820;37.490;2024-03-22T01:23:07;15.15;;;8.02;;
80381;SDS011;69692;55.820;37.490;2024-03-22T01:25:33;11.50;;;5.75;;
80381;SDS011;69692;55.820;37.490;2024-03-22T01:27:59;12.82;;;6.45;;
80381;SDS011;69692;55.820;37.490;2024-03-22T01:30:25;12.50;;;6.50;;
80381;SDS011;69692;55.820;37.490;2024-03-22T01:32:55;12.45;;;6.47;;
80381;SDS011;69692;55.820;37.490;2024-03-22T01:35:21;10.77;;;6.00;;
80381;SDS011;69692;55.820;37.490;2024-03-22T01:37:47;16.58;;;7.22;;
80381;SDS011;69692;55.820;37.490;2024-03-22T01:40:14;12.00;;;6.95;;
80381;SDS011;69692;55.820;37.490;2024-03-22T01:42:40;14.95;;;7.10;;
80381;SDS011;69692;55.820;37.490;2024-03-22T01:45:06;13.95;;;7.88;;
80381;SDS011;69692;55.820;37.490;2024-03-22T01:47:32;12.98;;;6.15;;
80381;SDS011;69692;55.820;37.490;2024-03-22T01:49:58;13.63;;;7.05;;
80381;SDS011;69692;55.820;37.490;2024-03-22T01:52:26;13.05;;;7.38;;
80381;SDS011;69692;55.820;37.490;2024-03-22T01:54:52;23.30;;;7.72;;
80381;SDS011;69692;55.820;37.490;2024-03-22T01:57:18;11.25;;;7.82;;
80381;SDS011;69692;55.820;37.490;2024-03-22T01:59:44;13.70;;;6.60;;
80381;SDS011;69692;55.820;37.490;2024-03-22T02:02:15;11.15;;;7.00;;
80381;SDS011;69692;55.820;37.490;2024-03-22T02:04:41;11.45;;;6.22;;
80381;SDS011;69692;55.820;37.490;2024-03-22T02:07:06;14.65;;;6.30;;
80381;SDS011;69692;55.820;37.490;2024-03-22T02:09:32;14.73;;;7.47;;
80381;SDS011;69692;55.820;37.490;2024-03-22T02:11:58;10.98;;;6.32;;
80381;SDS011;69692;55.820;37.490;2024-03-22T02:14:24;10.63;;;6.55;;
80381;SDS011;69692;55.820;37.490;2024-03-22T02:16:51;12.80;;;6.57;;
80381;SDS011;69692;55.820;37.490;2024-03-22T02:19:17;11.50;;;6.35;;
80381;SDS011;69692;55.820;37.490;2024-03-22T02:21:43;9.05;;;6.45;;
80381;SDS011;69692;55.820;37.490;2024-03-22T02:24:09;13.27;;;7.03;;
80381;SDS011;69692;55.820;37.490;2024-03-22T02:26:35;13.18;;;7.38;;
80381;SDS011;69692;55.820;37.490;2024-03-22T02:29:01;11.35;;;6.65;;
80381;SDS011;69692;55.820;37.490;2024-03-22T02:31:27;13.48;;;6.90;;
80381;SDS011;69692;55.820;37.490;2024-03-22T02:33:53;11.27;;;6.30;;
80381;SDS011;69692;55.820;37.490;2024-03-22T02:36:18;15.75;;;6.55;;
80381;SDS011;69692;55.820;37.490;2024-03-22T02:38:44;13.07;;;8.00;;
80381;SDS011;69692;55.820;37.490;2024-03-22T02:41:10;16.55;;;7.95;;
80381;SDS011;69692;55.820;37.490;2024-03-22T02:43:36;16.13;;;6.57;;
80381;SDS011;69692;55.820;37.490;2024-03-22T02:46:02;10.90;;;6.35;;
80381;SDS011;69692;55.820;37.490;2024-03-22T02:48:28;14.95;;;8.00;;
80381;SDS011;69692;55.820;37.490;2024-03-22T02:50:57;17.08;;;7.57;;
80381;SDS011;69692;55.820;37.490;2024-03-22T02:53:23;19.67;;;7.60;;
80381;SDS011;69692;55.820;37.490;2024-03-22T02:55:49;12.32;;;7.03;;
80381;SDS011;69692;55.820;37.490;2024-03-22T02:58:16;11.75;;;7.60;;
80381;SDS011;69692;55.820;37.490;2024-03-22T03:00:42;10.57;;;6.70;;
80381;SDS011;69692;55.820;37.490;2024-03-22T03:03:08;11.20;;;6.93;;
80381;SDS011;69692;55.820;37.490;2024-03-22T03:05:35;11.00;;;7.45;;
80381;SDS011;69692;55.820;37.490;2024-03-22T03:08:01;12.82;;;7.05;;
80381;SDS011;69692;55.820;37.490;2024-03-22T03:10:28;11.55;;;6.97;;
80381;SDS011;69692;55.820;37.490;2024-03-22T03:12:54;15.52;;;7.82;;
80381;SDS011;69692;55.820;37.490;2024-03-22T03:15:21;15.27;;;7.82;;
80381;SDS011;69692;55.820;37.490;2024-03-22T03:17:47;10.98;;;7.53;;
80381;SDS011;69692;55.820;37.490;2024-03-22T03:20:13;15.25;;;7.63;;
80381;SDS011;69692;55.820;37.490;2024-03-22T03:22:41;18.05;;;8.35;;
80381;SDS011;69692;55.820;37.490;2024-03-22T03:25:07;14.85;;;8.00;;
80381;SDS011;69692;55.820;37.490;2024-03-22T03:27:34;12.45;;;7.90;;
80381;SDS011;69692;55.820;37.490;2024-03-22T03:30:01;20.38;;;7.95;;
80381;SDS011;69692;55.820;37.490;2024-03-22T03:32:30;12.98;;;7.40;;
80381;SDS011;69692;55.820;37.490;2024-03-22T03:34:56;13.40;;;7.88;;
80381;SDS011;69692;55.820;37.490;2024-03-22T03:37:22;14.95;;;8.32;;
80381;SDS011;69692;55.820;37.490;2024-03-22T03:39:48;17.48;;;8.32;;
80381;SDS011;69692;55.820;37.490;2024-03-22T03:42:14;18.85;;;8.02;;
80381;SDS011;69692;55.820;37.490;2024-03-22T03:44:40;10.75;;;7.47;;
80381;SDS011;69692;55.820;37.490;2024-03-22T03:47:07;17.90;;;6.88;;
80381;SDS011;69692;55.820;37.490;2024-03-22T03:49:33;10.23;;;6.70;;
80381;SDS011;69692;55.820;37.490;2024-03-22T03:51:59;18.63;;;7.78;;
80381;SDS011;69692;55.820;37.490;2024-03-22T03:54:25;14.95;;;8.10;;
80381;SDS011;69692;55.820;37.490;2024-03-22T03:56:50;11.80;;;7.28;;
80381;SDS011;69692;55.820;37.490;2024-03-22T03:59:16;15.02;;;7.90;;
80381;SDS011;69692;55.820;37.490;2024-03-22T04:01:43;18.13;;;7.30;;
80381;SDS011;69692;55.820;37.490;2024-03-22T04:04:09;12.90;;;7.10;;
80381;SDS011;69692;55.820;37.490;2024-03-22T04:06:34;13.55;;;7.43;;
80381;SDS011;69692;55.820;37.490;2024-03-22T04:09:00;14.02;;;6.95;;
80381;SDS011;69692;55.820;37.490;2024-03-22T04:11:28;11.98;;;6.97;;
80381;SDS011;69692;55.820;37.490;2024-03-22T04:13:54;18.25;;;8.65;;
80381;SDS011;69692;55.820;37.490;2024-03-22T04:16:20;12.77;;;7.57;;
80381;SDS011;69692;55.820;37.490;2024-03-22T04:18:46;12.63;;;8.20;;
80381;SDS011;69692;55.820;37.490;2024-03-22T04:21:12;17.10;;;8.18;;
80381;SDS011;69692;55.820;37.490;2024-03-22T04:23:38;15.70;;;8.02;;
80381;SDS011;69692;55.820;37.490;2024-03-22T04:26:04;14.70;;;6.93;;
80381;SDS011;69692;55.820;37.490;2024-03-22T04:28:30;18.60;;;8.43;;
80381;SDS011;69692;55.820;37.490;2024-03-22T04:31:03;13.43;;;8.27;;
80381;SDS011;69692;55.820;37.490;2024-03-22T04:33:31;13.27;;;7.85;;
80381;SDS011;69692;55.820;37.490;2024-03-22T04:35:58;13.75;;;7.75;;
80381;SDS011;69692;55.820;37.490;2024-03-22T04:38:26;18.10;;;9.93;;
80381;SDS011;69692;55.820;37.490;2024-03-22T04:40:52;14.77;;;8.70;;
80381;SDS011;69692;55.820;37.490;2024-03-22T04:43:19;14.80;;;8.00;;
80381;SDS011;69692;55.820;37.490;2024-03-22T04:45:46;18.15;;;9.10;;
80381;SDS011;69692;55.820;37.490;2024-03-22T04:48:19;13.57;;;8.52;;
80381;SDS011;69692;55.820;37.490;2024-03-22T04:50:50;13.77;;;8.02;;
80381;SDS011;69692;55.820;37.490;2024-03-22T04:53:17;13.52;;;8.68;;
80381;SDS011;69692;55.820;37.490;2024-03-22T04:55:44;14.85;;;8.55;;
80381;SDS011;69692;55.820;37.490;2024-03-22T04:58:14;15.63;;;9.27;;
80381;SDS011;69692;55.820;37.490;2024-03-22T05:00:42;16.38;;;8.10;;
80381;SDS011;69692;55.820;37.490;2024-03-22T05:03:09;15.57;;;8.30;;
80381;SDS011;69692;55.820;37.490;2024-03-22T05:05:35;12.45;;;7.90;;
80381;SDS011;69692;55.820;37.490;2024-03-22T05:08:02;15.00;;;8.50;;
80381;SDS011;69692;55.820;37.490;2024-03-22T05:10:29;18.83;;;8.77;;
80381;SDS011;69692;55.820;37.490;2024-03-22T05:12:55;17.77;;;9.05;;
80381;SDS011;69692;55.820;37.490;2024-03-22T05:15:22;19.10;;;10.20;;
80381;SDS011;69692;55.820;37.490;2024-03-22T05:17:48;12.98;;;8.15;;
80381;SDS011;69692;55.820;37.490;2024-03-22T05:20:14;16.05;;;9.20;;
80381;SDS011;69692;55.820;37.490;2024-03-22T05:22:41;15.02;;;8.48;;
80381;SDS011;69692;55.820;37.490;2024-03-22T05:25:08;16.08;;;9.00;;
80381;SDS011;69692;55.820;37.490;2024-03-22T05:27:35;16.60;;;9.63;;
80381;SDS011;69692;55.820;37.490;2024-03-22T05:30:01;17.20;;;10.35;;
80381;SDS011;69692;55.820;37.490;2024-03-22T05:32:31;23.40;;;9.43;;
80381;SDS011;69692;55.820;37.490;2024-03-22T05:34:57;16.33;;;9.10;;
80381;SDS011;69692;55.820;37.490;2024-03-22T05:37:23;14.55;;;7.55;;
80381;SDS011;69692;55.820;37.490;2024-03-22T05:39:49;13.43;;;8.00;;
80381;SDS011;69692;55.820;37.490;2024-03-22T05:42:15;18.00;;;8.15;;
80381;SDS011;69692;55.820;37.490;2024-03-22T05:44:41;13.73;;;8.55;;
80381;SDS011;69692;55.820;37.490;2024-03-22T05:47:07;13.30;;;8.05;;
80381;SDS011;69692;55.820;37.490;2024-03-22T05:49:32;16.55;;;8.70;;
80381;SDS011;69692;55.820;37.490;2024-03-22T05:51:58;14.05;;;7.90;;
80381;SDS011;69692;55.820;37.490;2024-03-22T05:54:24;20.88;;;8.93;;
80381;SDS011;69692;55.820;37.490;2024-03-22T05:56:50;12.07;;;8.07;;
80381;SDS011;69692;55.820;37.490;2024-03-22T05:59:16;16.65;;;8.93;;
80381;SDS011;69692;55.820;37.490;2024-03-22T06:01:42;14.70;;;8.85;;
80381;SDS011;69692;55.820;37.490;2024-03-22T06:04:08;17.05;;;8.75;;
80381;SDS011;69692;55.820;37.490;2024-03-22T06:06:34;17.05;;;8.48;;
80381;SDS011;69692;55.820;37.490;2024-03-22T06:09:04;15.23;;;7.75;;
80381;SDS011;69692;55.820;37.490;2024-03-22T06:11:34;23.02;;;10.13;;
80381;SDS011;69692;55.820;37.490;2024-03-22T06:14:00;16.13;;;9.75;;
80381;SDS011;69692;55.820;37.490;2024-03-22T06:16:44;18.15;;;9.98;;
80381;SDS011;69692;55.820;37.490;2024-03-22T06:19:10;23.08;;;10.25;;
80381;SDS011;69692;55.820;37.490;2024-03-22T06:21:36;17.95;;;9.75;;
80381;SDS011;69692;55.820;37.490;2024-03-22T06:24:02;21.40;;;10.27;;
80381;SDS011;69692;55.820;37.490;2024-03-22T06:26:29;23.23;;;10.20;;
80381;SDS011;69692;55.820;37.490;2024-03-22T06:28:55;23.65;;;11.05;;
80381;SDS011;69692;55.820;37.490;2024-03-22T06:31:20;18.10;;;10.40;;
80381;SDS011;69692;55.820;37.490;2024-03-22T06:33:46;22.13;;;10.15;;
80381;SDS011;69692;55.820;37.490;2024-03-22T06:36:12;19.00;;;10.32;;
80381;SDS011;69692;55.820;37.490;2024-03-22T06:38:38;19.67;;;10.77;;
80381;SDS011;69692;55.820;37.490;2024-03-22T06:41:04;19.33;;;10.15;;
80381;SDS011;69692;55.820;37.490;2024-03-22T06:43:30;21.70;;;10.57;;
80381;SDS011;69692;55.820;37.490;2024-03-22T06:45:56;18.90;;;10.38;;
80381;SDS011;69692;55.820;37.490;2024-03-22T06:48:22;19.35;;;10.00;;
80381;SDS011;69692;55.820;37.490;2024-03-22T06:50:47;18.90;;;9.85;;
80381;SDS011;69692;55.820;37.490;2024-03-22T06:53:13;15.80;;;9.80;;
80381;SDS011;69692;55.820;37.490;2024-03-22T06:55:39;19.05;;;10.45;;
80381;SDS011;69692;55.820;37.490;2024-03-22T06:58:05;14.70;;;9.75;;
80381;SDS011;69692;55.820;37.490;2024-03-22T07:00:31;18.15;;;9.63;;
80381;SDS011;69692;55.820;37.490;2024-03-22T07:03:00;17.10;;;10.07;;
80381;SDS011;69692;55.820;37.490;2024-03-22T07:05:28;17.15;;;9.68;;
80381;SDS011;69692;55.820;37.490;2024-03-22T07:07:54;15.48;;;10.00;;
80381;SDS011;69692;55.820;37.490;2024-03-22T07:10:23;15.68;;;10.35;;
80381;SDS011;69692;55.820;37.490;2024-03-22T07:12:54;17.10;;;10.57;;
80381;SDS011;69692;55.820;37.490;2024-03-22T07:15:21;17.38;;;10.60;;
80381;SDS011;69692;55.820;37.490;2024-03-22T07:17:48;24.65;;;11.63;;
80381;SDS011;69692;55.820;37.490;2024-03-22T07:20:14;19.25;;;10.10;;
80381;SDS011;69692;55.820;37.490;2024-03-22T07:22:40;20.00;;;9.52;;
80381;SDS011;69692;55.820;37.490;2024-03-22T07:25:06;17.52;;;9.57;;
80381;SDS011;69692;55.820;37.490;2024-03-22T07:27:37;17.75;;;9.65;;
80381;SDS011;69692;55.820;37.490;2024-03-22T07:30:03;16.23;;;10.15;;
80381;SDS011;69692;55.820;37.490;2024-03-22T07:32:30;12.70;;;8.95;;
80381;SDS011;69692;55.820;37.490;2024-03-22T07:34:58;14.60;;;7.82;;
80381;SDS011;69692;55.820;37.490;2024-03-22T07:37:24;20.60;;;9.95;;
80381;SDS011;69692;55.820;37.490;2024-03-22T07:39:50;15.95;;;9.02;;
80381;SDS011;69692;55.820;37.490;2024-03-22T07:42:16;20.98;;;9.73;;
80381;SDS011;69692;55.820;37.490;2024-03-22T07:44:42;27.05;;;11.02;;
80381;SDS011;69692;55.820;37.490;2024-03-22T07:47:08;23.80;;;10.43;;
80381;SDS011;69692;55.820;37.490;2024-03-22T07:49:34;17.70;;;9.07;;
80381;SDS011;69692;55.820;37.490;2024-03-22T07:52:02;18.73;;;9.43;;
80381;SDS011;69692;55.820;37.490;2024-03-22T07:54:28;18.15;;;8.63;;
80381;SDS011;69692;55.820;37.490;2024-03-22T07:56:54;18.80;;;9.93;;
80381;SDS011;69692;55.820;37.490;2024-03-22T07:59:19;16.00;;;9.18;;
80381;SDS011;69692;55.820;37.490;2024-03-22T08:01:45;18.20;;;8.80;;
80381;SDS011;69692;55.820;37.490;2024-03-22T08:04:12;15.20;;;9.00;;
80381;SDS011;69692;55.820;37.490;2024-03-22T08:06:38;16.52;;;9.60;;
80381;SDS011;69692;55.820;37.490;2024-03-22T08:09:04;17.52;;;9.70;;
80381;SDS011;69692;55.820;37.490;2024-03-22T08:11:29;23.92;;;10.85;;
80381;SDS011;69692;55.820;37.490;2024-03-22T08:13:56;14.38;;;8.65;;
80381;SDS011;69692;55.820;37.490;2024-03-22T08:16:28;17.58;;;8.27;;
80381;SDS011;69692;55.820;37.490;2024-03-22T08:18:57;17.88;;;8.73;;
80381;SDS011;69692;55.820;37.490;2024-03-22T08:21:23;17.75;;;8.68;;
80381;SDS011;69692;55.820;37.490;2024-03-22T08:23:50;19.48;;;8.45;;
80381;SDS011;69692;55.820;37.490;2024-03-22T08:26:17;17.52;;;8.55;;
80381;SDS011;69692;55.820;37.490;2024-03-22T08:28:44;19.52;;;9.40;;
80381;SDS011;69692;55.820;37.490;2024-03-22T08:31:11;14.40;;;8.55;;
80381;SDS011;69692;55.820;37.490;2024-03-22T08:33:37;11.52;;;7.90;;
80381;SDS011;69692;55.820;37.490;2024-03-22T08:36:03;15.90;;;8.32;;
80381;SDS011;69692;55.820;37.490;2024-03-22T08:38:28;15.48;;;8.15;;
80381;SDS011;69692;55.820;37.490;2024-03-22T08:40:54;16.98;;;8.27;;
80381;SDS011;69692;55.820;37.490;2024-03-22T08:43:39;13.27;;;7.93;;
80381;SDS011;69692;55.820;37.490;2024-03-22T08:46:04;14.25;;;8.05;;
80381;SDS011;69692;55.820;37.490;2024-03-22T08:48:30;16.17;;;8.32;;
80381;SDS011;69692;55.820;37.490;2024-03-22T08:50:56;14.68;;;7.85;;
80381;SDS011;69692;55.820;37.490;2024-03-22T08:53:22;16.48;;;7.60;;
80381;SDS011;69692;55.820;37.490;2024-03-22T08:55:48;16.13;;;8.60;;
80381;SDS011;69692;55.820;37.490;2024-03-22T08:58:14;15.40;;;8.57;;
80381;SDS011;69692;55.820;37.490;2024-03-22T09:00:41;21.02;;;8.85;;
80381;SDS011;69692;55.820;37.490;2024-03-22T09:03:07;21.90;;;9.48;;
80381;SDS011;69692;55.820;37.490;2024-03-22T09:05:33;17.00;;;7.00;;
80381;SDS011;69692;55.820;37.490;2024-03-22T09:07:59;19.45;;;9.35;;
80381;SDS011;69692;55.820;37.490;2024-03-22T09:10:26;13.93;;;9.15;;
80381;SDS011;69692;55.820;37.490;2024-03-22T09:12:52;19.08;;;8.73;;
80381;SDS011;69692;55.820;37.490;2024-03-22T09:15:18;17.33;;;8.85;;
80381;SDS011;69692;55.820;37.490;2024-03-22T09:17:44;14.18;;;7.70;;
80381;SDS011;69692;55.820;37.490;2024-03-22T09:20:10;17.92;;;9.02;;
80381;SDS011;69692;55.820;37.490;2024-03-22T09:22:37;17.08;;;9.35;;
80381;SDS011;69692;55.820;37.490;2024-03-22T09:25:04;17.67;;;8.88;;
80381;SDS011;69692;55.820;37.490;2024-03-22T09:27:31;16.75;;;8.88;;
80381;SDS011;69692;55.820;37.490;2024-03-22T09:29:58;21.38;;;8.27;;
80381;SDS011;69692;55.820;37.490;2024-03-22T09:32:23;15.07;;;6.75;;
80381;SDS011;69692;55.820;37.490;2024-03-22T09:34:52;13.50;;;7.07;;
80381;SDS011;69692;55.820;37.490;2024-03-22T09:37:18;17.10;;;6.95;;
80381;SDS011;69692;55.820;37.490;2024-03-22T09:39:44;14.95;;;7.22;;
80381;SDS011;69692;55.820;37.490;2024-03-22T09:42:15;16.13;;;9.70;;
80381;SDS011;69692;55.820;37.490;2024-03-22T09:44:49;20.45;;;8.07;;
80381;SDS011;69692;55.820;37.490;2024-03-22T09:47:17;13.60;;;7.10;;
80381;SDS011;69692;55.820;37.490;2024-03-22T09:49:45;17.15;;;7.45;;
80381;SDS011;69692;55.820;37.490;2024-03-22T09:52:14;15.98;;;7.63;;
80381;SDS011;69692;55.820;37.490;2024-03-22T09:54:44;13.27;;;7.80;;
80381;SDS011;69692;55.820;37.490;2024-03-22T09:57:11;15.45;;;8.80;;
80381;SDS011;69692;55.820;37.490;2024-03-22T09:59:41;11.38;;;5.80;;
80381;SDS011;69692;55.820;37.490;2024-03-22T10:02:09;13.70;;;6.50;;
80381;SDS011;69692;55.820;37.490;2024-03-22T10:04:38;10.35;;;6.65;;
80381;SDS011;69692;55.820;37.490;2024-03-22T10:07:04;12.35;;;6.65;;
80381;SDS011;69692;55.820;37.490;2024-03-22T10:09:31;16.10;;;7.80;;
80381;SDS011;69692;55.820;37.490;2024-03-22T10:11:58;17.17;;;7.70;;
80381;SDS011;69692;55.820;37.490;2024-03-22T10:14:24;12.40;;;7.18;;
80381;SDS011;69692;55.820;37.490;2024-03-22T10:16:53;9.65;;;6.60;;
80381;SDS011;69692;55.820;37.490;2024-03-22T10:19:20;10.57;;;5.85;;
80381;SDS011;69692;55.820;37.490;2024-03-22T10:22:20;11.80;;;5.65;;
80381;SDS011;69692;55.820;37.490;2024-03-22T10:24:41;11.80;;;6.68;;
80381;SDS011;69692;55.820;37.490;2024-03-22T10:27:08;11.63;;;5.70;;
80381;SDS011;69692;55.820;37.490;2024-03-22T10:29:34;12.23;;;7.30;;
80381;SDS011;69692;55.820;37.490;2024-03-22T10:32:01;14.65;;;6.55;;
80381;SDS011;69692;55.820;37.490;2024-03-22T10:34:27;10.57;;;5.78;;
80381;SDS011;69692;55.820;37.490;2024-03-22T10:36:57;15.15;;;5.70;;
80381;SDS011;69692;55.820;37.490;2024-03-22T10:39:29;9.13;;;5.03;;
80381;SDS011;69692;55.820;37.490;2024-03-22T10:41:56;13.65;;;5.68;;
80381;SDS011;69692;55.820;37.490;2024-03-22T10:44:22;9.90;;;5.80;;
80381;SDS011;69692;55.820;37.490;2024-03-22T10:46:49;11.98;;;4.68;;
80381;SDS011;69692;55.820;37.490;2024-03-22T10:49:18;10.07;;;6.03;;
80381;SDS011;69692;55.820;37.490;2024-03-22T10:51:49;11.15;;;5.20;;
80381;SDS011;69692;55.820;37.490;2024-03-22T10:54:19;12.38;;;5.70;;
80381;SDS011;69692;55.820;37.490;2024-03-22T10:56:47;8.18;;;4.85;;
80381;SDS011;69692;55.820;37.490;2024-03-22T10:59:18;11.60;;;5.25;;
80381;SDS011;69692;55.820;37.490;2024-03-22T11:02:02;13.07;;;6.55;;
80381;SDS011;69692;55.820;37.490;2024-03-22T11:04:29;11.88;;;5.13;;
80381;SDS011;69692;55.820;37.490;2024-03-22T11:06:59;11.23;;;5.05;;
80381;SDS011;69692;55.820;37.490;2024-03-22T11:09:26;9.93;;;5.13;;
80381;SDS011;69692;55.820;37.490;2024-03-22T11:11:53;11.10;;;4.88;;
80381;SDS011;69692;55.820;37.490;2024-03-22T11:14:19;7.05;;;4.20;;
80381;SDS011;69692;55.820;37.490;2024-03-22T11:16:46;9.02;;;5.15;;
80381;SDS011;69692;55.820;37.490;2024-03-22T11:19:13;8.60;;;4.53;;
80381;SDS011;69692;55.820;37.490;2024-03-22T11:21:39;10.43;;;4.97;;
80381;SDS011;69692;55.820;37.490;2024-03-22T11:24:05;9.48;;;5.10;;
80381;SDS011;69692;55.820;37.490;2024-03-22T11:26:32;8.38;;;4.53;;
80381;SDS011;69692;55.820;37.490;2024-03-22T11:28:58;7.97;;;4.78;;
80381;SDS011;69692;55.820;37.490;2024-03-22T11:31:25;9.20;;;4.03;;
80381;SDS011;69692;55.820;37.490;2024-03-22T11:33:55;9.02;;;4.35;;
80381;SDS011;69692;55.820;37.490;2024-03-22T11:36:22;7.38;;;4.60;;
80381;SDS011;69692;55.820;37.490;2024-03-22T11:38:48;13.35;;;4.45;;
80381;SDS011;69692;55.820;37.490;2024-03-22T11:41:16;7.93;;;4.00;;
80381;SDS011;69692;55.820;37.490;2024-03-22T11:43:45;8.95;;;4.35;;
80381;SDS011;69692;55.820;37.490;2024-03-22T11:46:14;7.60;;;4.65;;
80381;SDS011;69692;55.820;37.490;2024-03-22T11:48:41;8.68;;;4.13;;
80381;SDS011;69692;55.820;37.490;2024-03-22T11:51:07;9.00;;;4.90;;
80381;SDS011;69692;55.820;37.490;2024-03-22T11:53:35;10.00;;;4.20;;
80381;SDS011;69692;55.820;37.490;2024-03-22T11:56:01;5.75;;;4.20;;
80381;SDS011;69692;55.820;37.490;2024-03-22T11:58:31;12.57;;;5.53;;
80381;SDS011;69692;55.820;37.490;2024-03-22T12:00:57;10.65;;;4.45;;
80381;SDS011;69692;55.820;37.490;2024-03-22T12:03:24;8.60;;;4.10;;
80381;SDS011;69692;55.820;37.490;2024-03-22T12:05:49;10.05;;;5.15;;
80381;SDS011;69692;55.820;37.490;2024-03-22T12:08:17;7.63;;;5.05;;
80381;SDS011;69692;55.820;37.490;2024-03-22T12:10:43;7.53;;;4.63;;
80381;SDS011;69692;55.820;37.490;2024-03-22T12:13:09;10.73;;;4.38;;
80381;SDS011;69692;55.820;37.490;2024-03-22T12:15:36;7.85;;;4.85;;
80381;SDS011;69692;55.820;37.490;2024-03-22T12:18:02;9.30;;;4.50;;
80381;SDS011;69692;55.820;37.490;2024-03-22T12:20:28;7.78;;;4.65;;
80381;SDS011;69692;55.820;37.490;2024-03-22T12:22:55;13.02;;;4.97;;
80381;SDS011;69692;55.820;37.490;2024-03-22T12:25:21;8.05;;;5.13;;
80381;SDS011;69692;55.820;37.490;2024-03-22T12:27:47;7.93;;;4.80;;
80381;SDS011;69692;55.820;37.490;2024-03-22T12:30:13;8.30;;;4.18;;
80381;SDS011;69692;55.820;37.490;2024-03-22T12:32:39;9.48;;;4.72;;
80381;SDS011;69692;55.820;37.490;2024-03-22T12:35:06;11.07;;;4.63;;
80381;SDS011;69692;55.820;37.490;2024-03-22T12:37:33;10.00;;;4.35;;
80381;SDS011;69692;55.820;37.490;2024-03-22T12:39:59;9.63;;;3.92;;
80381;SDS011;69692;55.820;37.490;2024-03-22T12:42:25;10.27;;;4.53;;
80381;SDS011;69692;55.820;37.490;2024-03-22T12:44:51;6.93;;;4.15;;
80381;SDS011;69692;55.820;37.490;2024-03-22T12:47:17;11.82;;;4.38;;
80381;SDS011;69692;55.820;37.490;2024-03-22T12:49:42;7.85;;;4.22;;
80381;SDS011;69692;55.820;37.490;2024-03-22T12:52:08;8.15;;;4.40;;
80381;SDS011;69692;55.820;37.490;2024-03-22T12:54:35;7.03;;;3.97;;
80381;SDS011;69692;55.820;37.490;2024-03-22T12:57:01;10.00;;;4.10;;
80381;SDS011;69692;55.820;37.490;2024-03-22T12:59:27;6.38;;;3.83;;
80381;SDS011;69692;55.820;37.490;2024-03-22T13:01:53;7.60;;;4.10;;
80381;SDS011;69692;55.820;37.490;2024-03-22T13:04:19;6.95;;;3.53;;
80381;SDS011;69692;55.820;37.490;2024-03-22T13:07:03;11.07;;;5.03;;
80381;SDS011;69692;55.820;37.490;2024-03-22T13:09:47;7.70;;;3.97;;
80381;SDS011;69692;55.820;37.490;2024-03-22T13:12:16;5.93;;;3.67;;
80381;SDS011;69692;55.820;37.490;2024-03-22T13:14:43;7.50;;;3.38;;
80381;SDS011;69692;55.820;37.490;2024-03-22T13:17:09;7.45;;;3.75;;
80381;SDS011;69692;55.820;37.490;2024-03-22T13:19:35;8.18;;;3.75;;
80381;SDS011;69692;55.820;37.490;2024-03-22T13:22:01;10.75;;;4.25;;
80381;SDS011;69692;55.820;37.490;2024-03-22T13:24:27;9.55;;;3.58;;
80381;SDS011;69692;55.820;37.490;2024-03-22T13:26:53;8.18;;;3.22;;
80381;SDS011;69692;55.820;37.490;2024-03-22T13:29:19;6.85;;;3.67;;
80381;SDS011;69692;55.820;37.490;2024-03-22T13:31:45;7.50;;;3.53;;
80381;SDS011;69692;55.820;37.490;2024-03-22T13:34:11;10.35;;;3.50;;
80381;SDS011;69692;55.820;37.490;2024-03-22T13:36:36;6.43;;;3.40;;
80381;SDS011;69692;55.820;37.490;2024-03-22T13:39:03;6.10;;;3.42;;
80381;SDS011;69692;55.820;37.490;2024-03-22T13:41:29;6.63;;;3.47;;
80381;SDS011;69692;55.820;37.490;2024-03-22T13:43:55;8.50;;;3.53;;
80381;SDS011;69692;55.820;37.490;2024-03-22T13:46:21;6.72;;;3.20;;
80381;SDS011;69692;55.820;37.490;2024-03-22T13:48:50;6.50;;;3.30;;
80381;SDS011;69692;55.820;37.490;2024-03-22T13:51:16;7.30;;;3.42;;
80381;SDS011;69692;55.820;37.490;2024-03-22T13:53:42;9.00;;;4.32;;
80381;SDS011;69692;55.820;37.490;2024-03-22T13:56:08;6.82;;;3.72;;
80381;SDS011;69692;55.820;37.490;2024-03-22T13:58:34;7.47;;;3.95;;
80381;SDS011;69692;55.820;37.490;2024-03-22T14:01:00;5.78;;;3.45;;
80381;SDS011;69692;55.820;37.490;2024-03-22T14:03:26;10.38;;;3.92;;
80381;SDS011;69692;55.820;37.490;2024-03-22T14:05:52;6.22;;;3.13;;
80381;SDS011;69692;55.820;37.490;2024-03-22T14:08:18;7.80;;;4.05;;
80381;SDS011;69692;55.820;37.490;2024-03-22T14:10:43;7.53;;;3.45;;
80381;SDS011;69692;55.820;37.490;2024-03-22T14:13:09;8.43;;;3.70;;
80381;SDS011;69692;55.820;37.490;2024-03-22T14:15:35;9.68;;;3.53;;
80381;SDS011;69692;55.820;37.490;2024-03-22T14:18:01;7.25;;;4.53;;
80381;SDS011;69692;55.820;37.490;2024-03-22T14:20:28;6.82;;;4.03;;